DAAW weather

Bordj Omar Driss Airport
Bordj Omar Driss, Illizi Province, Algeria

Public forecast

Using degrees Celsius for public forecast. Weather courtesy of forecast.io.

METAR (pilot weather report)

Closest report is Illizi Takhamalt Airport, 127.4 nm (236.0 km) SE. Retrieved 2019/02/21 05:00 UTC (29 minutes ago):

DAAP 210500Z 24010KT 6000 NSC 12/M07 Q1015

TAF (pilot weather forecast)

Forecast is more than 12 hours old.

Closest forecast is Illizi Takhamalt Airport, 127.4 nm (236.0 km) SE. Retrieved 2017/11/09 18:03 UTC (1 year ago):

TAF TAF DAAP 091700Z 0918/1009 17010KT CAVOK